sensor_id;sensor_type;location;lat;lon;timestamp;pressure;altitude;pressure_sealevel;temperature;humidity
5550;BME280;2798;42.716;23.256;2022-11-20T00:01:37;94021.31;;;15.34;87.82
5550;BME280;2798;42.716;23.256;2022-11-20T00:04:03;94001.38;;;15.43;87.79
5550;BME280;2798;42.716;23.256;2022-11-20T00:06:29;94003.69;;;15.54;87.86
5550;BME280;2798;42.716;23.256;2022-11-20T00:08:59;94003.03;;;15.61;88.25
5550;BME280;2798;42.716;23.256;2022-11-20T00:11:26;93994.63;;;15.67;88.01
5550;BME280;2798;42.716;23.256;2022-11-20T00:13:55;93990.56;;;15.73;88.23
5550;BME280;2798;42.716;23.256;2022-11-20T00:16:23;93977.44;;;15.82;88.21
5550;BME280;2798;42.716;23.256;2022-11-20T00:18:50;93970.78;;;15.88;88.52
5550;BME280;2798;42.716;23.256;2022-11-20T00:21:24;93970.28;;;15.93;88.24
5550;BME280;2798;42.716;23.256;2022-11-20T00:23:51;93996.44;;;16.00;88.23
5550;BME280;2798;42.716;23.256;2022-11-20T00:26:18;93998.72;;;16.03;88.34
5550;BME280;2798;42.716;23.256;2022-11-20T00:28:51;93993.84;;;16.08;88.31
5550;BME280;2798;42.716;23.256;2022-11-20T00:31:17;93979.72;;;16.11;88.37
5550;BME280;2798;42.716;23.256;2022-11-20T00:33:43;93995.63;;;16.16;88.27
5550;BME280;2798;42.716;23.256;2022-11-20T00:36:14;93992.53;;;16.21;88.16
5550;BME280;2798;42.716;23.256;2022-11-20T00:38:40;93993.84;;;16.25;88.28
5550;BME280;2798;42.716;23.256;2022-11-20T00:41:08;93994.13;;;16.30;88.17
5550;BME280;2798;42.716;23.256;2022-11-20T00:43:35;93993.00;;;16.33;88.24
5550;BME280;2798;42.716;23.256;2022-11-20T00:46:02;94000.31;;;16.37;88.00
5550;BME280;2798;42.716;23.256;2022-11-20T00:48:28;93998.97;;;16.41;87.91
5550;BME280;2798;42.716;23.256;2022-11-20T00:50:54;93996.72;;;16.47;87.88
5550;BME280;2798;42.716;23.256;2022-11-20T00:53:20;94000.91;;;16.48;87.83
5550;BME280;2798;42.716;23.256;2022-11-20T00:56:04;93987.44;;;16.52;88.02
5550;BME280;2798;42.716;23.256;2022-11-20T00:58:40;93995.22;;;16.52;87.90
5550;BME280;2798;42.716;23.256;2022-11-20T01:01:14;93993.28;;;16.46;88.08
5550;BME280;2798;42.716;23.256;2022-11-20T01:03:42;93983.19;;;16.60;88.21
5550;BME280;2798;42.716;23.256;2022-11-20T01:06:16;93988.72;;;16.65;88.19
5550;BME280;2798;42.716;23.256;2022-11-20T01:08:42;93970.53;;;16.65;88.05
5550;BME280;2798;42.716;23.256;2022-11-20T01:11:11;93969.53;;;16.66;87.94
5550;BME280;2798;42.716;23.256;2022-11-20T01:13:37;93977.66;;;16.71;87.89
5550;BME280;2798;42.716;23.256;2022-11-20T01:16:14;93950.06;;;16.70;87.97
5550;BME280;2798;42.716;23.256;2022-11-20T01:18:42;93946.97;;;16.66;88.17
5550;BME280;2798;42.716;23.256;2022-11-20T01:21:14;93966.59;;;16.77;88.17
5550;BME280;2798;42.716;23.256;2022-11-20T01:23:41;93951.03;;;16.69;88.51
5550;BME280;2798;42.716;23.256;2022-11-20T01:26:10;93971.28;;;16.82;88.17
5550;BME280;2798;42.716;23.256;2022-11-20T01:28:37;93960.88;;;16.82;88.29
5550;BME280;2798;42.716;23.256;2022-11-20T01:31:11;93987.34;;;16.86;88.01
5550;BME280;2798;42.716;23.256;2022-11-20T01:33:37;93963.94;;;16.86;88.17
5550;BME280;2798;42.716;23.256;2022-11-20T01:36:04;93971.75;;;16.86;88.29
5550;BME280;2798;42.716;23.256;2022-11-20T01:38:30;93969.94;;;16.86;88.01
5550;BME280;2798;42.716;23.256;2022-11-20T01:40:56;93936.50;;;16.83;87.69
5550;BME280;2798;42.716;23.256;2022-11-20T01:43:21;93961.66;;;16.91;88.09
5550;BME280;2798;42.716;23.256;2022-11-20T01:51:34;93973.50;;;16.93;87.73
5550;BME280;2798;42.716;23.256;2022-11-20T01:54:03;93987.16;;;16.96;87.74
5550;BME280;2798;42.716;23.256;2022-11-20T01:56:33;93958.41;;;16.89;87.67
5550;BME280;2798;42.716;23.256;2022-11-20T01:59:02;93947.19;;;16.88;87.44
5550;BME280;2798;42.716;23.256;2022-11-20T02:01:29;93975.59;;;16.98;87.59
5550;BME280;2798;42.716;23.256;2022-11-20T02:03:54;93959.69;;;16.93;87.69
5550;BME280;2798;42.716;23.256;2022-11-20T02:06:29;93967.78;;;16.98;87.60
5550;BME280;2798;42.716;23.256;2022-11-20T02:08:55;93968.44;;;17.00;87.96
5550;BME280;2798;42.716;23.256;2022-11-20T02:11:21;93958.03;;;17.00;87.57
5550;BME280;2798;42.716;23.256;2022-11-20T02:13:47;93969.06;;;17.02;87.31
5550;BME280;2798;42.716;23.256;2022-11-20T02:16:16;93950.88;;;17.02;87.68
5550;BME280;2798;42.716;23.256;2022-11-20T02:18:44;93963.88;;;17.02;87.50
5550;BME280;2798;42.716;23.256;2022-11-20T02:21:21;93962.72;;;17.05;87.37
5550;BME280;2798;42.716;23.256;2022-11-20T02:26:19;93957.22;;;17.00;87.16
5550;BME280;2798;42.716;23.256;2022-11-20T02:28:47;93948.75;;;17.06;87.16
5550;BME280;2798;42.716;23.256;2022-11-20T02:31:12;93962.25;;;17.10;86.65
5550;BME280;2798;42.716;23.256;2022-11-20T02:33:38;93965.66;;;17.10;87.13
5550;BME280;2798;42.716;23.256;2022-11-20T02:36:03;93966.44;;;17.11;86.90
5550;BME280;2798;42.716;23.256;2022-11-20T02:38:29;93972.81;;;17.08;86.69
5550;BME280;2798;42.716;23.256;2022-11-20T02:40:54;93977.66;;;17.11;86.88
5550;BME280;2798;42.716;23.256;2022-11-20T02:43:20;93979.28;;;17.12;86.94
5550;BME280;2798;42.716;23.256;2022-11-20T02:45:45;93971.47;;;17.12;86.78
5550;BME280;2798;42.716;23.256;2022-11-20T02:48:10;93973.13;;;17.13;86.75
5550;BME280;2798;42.716;23.256;2022-11-20T02:50:37;93985.31;;;17.13;86.88
5550;BME280;2798;42.716;23.256;2022-11-20T02:53:03;93996.19;;;17.16;86.53
5550;BME280;2798;42.716;23.256;2022-11-20T02:55:29;93981.44;;;17.09;86.70
5550;BME280;2798;42.716;23.256;2022-11-20T02:57:54;93980.44;;;17.10;86.64
5550;BME280;2798;42.716;23.256;2022-11-20T03:00:20;93998.44;;;17.20;86.70
5550;BME280;2798;42.716;23.256;2022-11-20T03:02:46;93992.41;;;17.19;86.55
5550;BME280;2798;42.716;23.256;2022-11-20T03:05:11;93990.47;;;17.21;86.84
5550;BME280;2798;42.716;23.256;2022-11-20T03:07:36;93978.84;;;17.09;86.67
5550;BME280;2798;42.716;23.256;2022-11-20T03:10:03;93998.44;;;17.20;86.49
5550;BME280;2798;42.716;23.256;2022-11-20T03:12:28;94008.66;;;17.21;86.70
5550;BME280;2798;42.716;23.256;2022-11-20T03:14:54;93988.72;;;17.05;86.68
5550;BME280;2798;42.716;23.256;2022-11-20T03:17:19;94012.09;;;17.22;86.71
5550;BME280;2798;42.716;23.256;2022-11-20T03:19:45;94008.31;;;17.24;86.55
5550;BME280;2798;42.716;23.256;2022-11-20T03:22:10;94008.31;;;17.24;86.72
5550;BME280;2798;42.716;23.256;2022-11-20T03:24:36;93994.34;;;17.25;86.94
5550;BME280;2798;42.716;23.256;2022-11-20T03:27:01;94006.38;;;17.26;86.95
5550;BME280;2798;42.716;23.256;2022-11-20T03:29:26;94011.91;;;17.23;87.04
5550;BME280;2798;42.716;23.256;2022-11-20T03:31:52;94028.94;;;17.26;86.99
5550;BME280;2798;42.716;23.256;2022-11-20T03:34:17;94033.34;;;17.25;87.17
5550;BME280;2798;42.716;23.256;2022-11-20T03:36:43;94031.56;;;17.26;87.09
5550;BME280;2798;42.716;23.256;2022-11-20T03:39:09;94033.34;;;17.25;87.36
5550;BME280;2798;42.716;23.256;2022-11-20T03:41:41;94035.16;;;17.25;87.36
5550;BME280;2798;42.716;23.256;2022-11-20T03:44:09;94037.56;;;17.26;87.51
5550;BME280;2798;42.716;23.256;2022-11-20T03:46:35;94055.59;;;17.28;87.45
5550;BME280;2798;42.716;23.256;2022-11-20T03:49:01;94034.16;;;17.26;87.59
5550;BME280;2798;42.716;23.256;2022-11-20T03:51:34;94047.16;;;17.26;87.56
5550;BME280;2798;42.716;23.256;2022-11-20T03:54:02;94045.38;;;17.26;87.47
5550;BME280;2798;42.716;23.256;2022-11-20T03:56:30;94041.94;;;17.26;87.55
5550;BME280;2798;42.716;23.256;2022-11-20T03:58:56;94057.56;;;17.26;87.66
5550;BME280;2798;42.716;23.256;2022-11-20T04:01:25;94052.34;;;17.26;87.61
5550;BME280;2798;42.716;23.256;2022-11-20T04:03:55;94069.75;;;17.25;87.68
5550;BME280;2798;42.716;23.256;2022-11-20T04:06:25;94059.03;;;17.20;87.92
5550;BME280;2798;42.716;23.256;2022-11-20T04:08:51;94051.53;;;17.25;87.73
5550;BME280;2798;42.716;23.256;2022-11-20T04:11:25;94055.28;;;17.23;87.93
5550;BME280;2798;42.716;23.256;2022-11-20T04:13:53;94050.91;;;17.23;88.03
5550;BME280;2798;42.716;23.256;2022-11-20T04:16:19;94031.94;;;17.14;87.96
5550;BME280;2798;42.716;23.256;2022-11-20T04:18:44;94029.28;;;17.23;88.15
5550;BME280;2798;42.716;23.256;2022-11-20T04:21:11;94033.69;;;17.22;87.97
5550;BME280;2798;42.716;23.256;2022-11-20T04:23:36;94036.28;;;17.22;88.25
5550;BME280;2798;42.716;23.256;2022-11-20T04:26:07;94036.28;;;17.22;87.97
5550;BME280;2798;42.716;23.256;2022-11-20T04:28:33;94020.88;;;17.04;87.92
5550;BME280;2798;42.716;23.256;2022-11-20T04:31:19;94040.81;;;17.20;88.29
5550;BME280;2798;42.716;23.256;2022-11-20T04:33:45;94046.03;;;17.20;88.47
5550;BME280;2798;42.716;23.256;2022-11-20T04:36:13;94043.44;;;17.20;88.42
5550;BME280;2798;42.716;23.256;2022-11-20T04:38:40;94045.22;;;17.20;88.32
5550;BME280;2798;42.716;23.256;2022-11-20T04:41:07;94031.59;;;17.17;88.19
5550;BME280;2798;42.716;23.256;2022-11-20T04:43:33;94034.69;;;17.13;88.14
5550;BME280;2798;42.716;23.256;2022-11-20T04:46:00;94031.59;;;17.17;88.14
5550;BME280;2798;42.716;23.256;2022-11-20T04:48:26;94024.44;;;17.20;88.22
5550;BME280;2798;42.716;23.256;2022-11-20T04:50:52;94022.00;;;17.18;88.31
5550;BME280;2798;42.716;23.256;2022-11-20T04:53:19;94022.78;;;17.18;88.20
5550;BME280;2798;42.716;23.256;2022-11-20T04:55:46;94023.13;;;17.15;88.31
5550;BME280;2798;42.716;23.256;2022-11-20T04:58:12;94008.34;;;17.16;88.07
5550;BME280;2798;42.716;23.256;2022-11-20T05:00:37;94008.00;;;17.19;88.11
5550;BME280;2798;42.716;23.256;2022-11-20T05:03:03;94013.22;;;17.19;88.10
5550;BME280;2798;42.716;23.256;2022-11-20T05:05:28;94006.22;;;17.20;88.10
5550;BME280;2798;42.716;23.256;2022-11-20T05:07:56;94000.22;;;17.19;88.46
5550;BME280;2798;42.716;23.256;2022-11-20T05:10:23;93995.19;;;17.17;88.12
5550;BME280;2798;42.716;23.256;2022-11-20T05:12:49;93976.69;;;17.12;88.04
5550;BME280;2798;42.716;23.256;2022-11-20T05:15:14;93995.00;;;17.19;88.46
5550;BME280;2798;42.716;23.256;2022-11-20T05:17:40;93995.84;;;17.20;88.04
5550;BME280;2798;42.716;23.256;2022-11-20T05:20:06;94008.19;;;17.17;88.42
5550;BME280;2798;42.716;23.256;2022-11-20T05:22:31;94006.56;;;17.16;88.13
5550;BME280;2798;42.716;23.256;2022-11-20T05:24:57;94017.75;;;17.17;88.32
5550;BME280;2798;42.716;23.256;2022-11-20T05:27:22;94018.41;;;17.19;88.40
5550;BME280;2798;42.716;23.256;2022-11-20T05:29:47;94015.66;;;17.21;88.40
5550;BME280;2798;42.716;23.256;2022-11-20T05:32:13;94018.25;;;17.21;88.44
5550;BME280;2798;42.716;23.256;2022-11-20T05:34:38;94028.81;;;17.19;88.22
5550;BME280;2798;42.716;23.256;2022-11-20T05:37:04;94026.88;;;17.21;88.46
5550;BME280;2798;42.716;23.256;2022-11-20T05:39:29;94016.47;;;17.21;88.31
5550;BME280;2798;42.716;23.256;2022-11-20T05:41:54;94024.25;;;17.21;88.26
5550;BME280;2798;42.716;23.256;2022-11-20T05:44:39;94021.50;;;17.23;88.39
5550;BME280;2798;42.716;23.256;2022-11-20T05:47:05;94030.13;;;17.23;88.57
5550;BME280;2798;42.716;23.256;2022-11-20T05:49:30;94029.13;;;17.24;88.57
5550;BME280;2798;42.716;23.256;2022-11-20T05:51:55;94022.31;;;17.23;88.61
5550;BME280;2798;42.716;23.256;2022-11-20T05:54:21;94025.72;;;17.24;88.42
5550;BME280;2798;42.716;23.256;2022-11-20T05:56:46;94027.16;;;17.26;88.42
5550;BME280;2798;42.716;23.256;2022-11-20T05:59:12;94028.31;;;17.24;88.43
5550;BME280;2798;42.716;23.256;2022-11-20T06:01:37;94045.72;;;17.23;88.94
5550;BME280;2798;42.716;23.256;2022-11-20T06:04:02;94041.94;;;17.26;88.41
5550;BME280;2798;42.716;23.256;2022-11-20T06:06:28;94041.13;;;17.25;88.42
5550;BME280;2798;42.716;23.256;2022-11-20T06:08:54;94041.31;;;17.24;88.68
5550;BME280;2798;42.716;23.256;2022-11-20T06:11:20;94051.19;;;17.28;88.73
5550;BME280;2798;42.716;23.256;2022-11-20T06:13:46;94044.22;;;17.29;88.47
5550;BME280;2798;42.716;23.256;2022-11-20T06:16:14;94045.81;;;17.30;88.63
5550;BME280;2798;42.716;23.256;2022-11-20T06:18:40;94045.66;;;17.32;88.43
5550;BME280;2798;42.716;23.256;2022-11-20T06:21:08;94047.91;;;17.35;88.42
5550;BME280;2798;42.716;23.256;2022-11-20T06:23:35;94045.47;;;17.33;88.39
5550;BME280;2798;42.716;23.256;2022-11-20T06:26:12;94041.41;;;17.39;88.34
5550;BME280;2798;42.716;23.256;2022-11-20T06:28:39;94041.22;;;17.40;88.24
5550;BME280;2798;42.716;23.256;2022-11-20T06:31:05;94049.69;;;17.42;88.25
5550;BME280;2798;42.716;23.256;2022-11-20T06:33:30;94048.53;;;17.45;88.33
5550;BME280;2798;42.716;23.256;2022-11-20T06:35:57;94055.97;;;17.48;88.27
5550;BME280;2798;42.716;23.256;2022-11-20T06:38:24;94024.81;;;17.40;88.12
5550;BME280;2798;42.716;23.256;2022-11-20T06:40:49;94044.59;;;17.49;88.16
5550;BME280;2798;42.716;23.256;2022-11-20T06:43:15;94052.03;;;17.52;87.86
5550;BME280;2798;42.716;23.256;2022-11-20T06:45:41;94076.06;;;17.63;87.82
5550;BME280;2798;42.716;23.256;2022-11-20T06:48:06;94058.50;;;17.65;88.05
5550;BME280;2798;42.716;23.256;2022-11-20T06:50:32;94062.38;;;17.69;87.62
5550;BME280;2798;42.716;23.256;2022-11-20T06:53:00;94061.38;;;17.70;87.80
5550;BME280;2798;42.716;23.256;2022-11-20T06:55:27;94061.50;;;17.77;87.70
5550;BME280;2798;42.716;23.256;2022-11-20T06:57:52;94051.56;;;17.81;87.41
5550;BME280;2798;42.716;23.256;2022-11-20T07:00:17;94053.00;;;17.83;87.46
5550;BME280;2798;42.716;23.256;2022-11-20T07:02:43;93987.09;;;17.44;87.10
5550;BME280;2798;42.716;23.256;2022-11-20T07:05:08;94066.50;;;17.87;86.91
5550;BME280;2798;42.716;23.256;2022-11-20T07:07:34;94077.19;;;17.92;86.73
5550;BME280;2798;42.716;23.256;2022-11-20T07:09:59;94083.41;;;17.91;86.69
5550;BME280;2798;42.716;23.256;2022-11-20T07:12:24;94098.19;;;17.90;86.83
5550;BME280;2798;42.716;23.256;2022-11-20T07:14:50;94089.22;;;17.93;86.45
5550;BME280;2798;42.716;23.256;2022-11-20T07:17:15;94088.44;;;17.92;86.59
5550;BME280;2798;42.716;23.256;2022-11-20T07:19:41;94091.66;;;17.95;86.88
5550;BME280;2798;42.716;23.256;2022-11-20T07:22:08;94093.47;;;17.94;86.56
5550;BME280;2798;42.716;23.256;2022-11-20T07:24:34;94090.88;;;17.94;86.54
5550;BME280;2798;42.716;23.256;2022-11-20T07:27:00;94098.50;;;17.96;86.50
5550;BME280;2798;42.716;23.256;2022-11-20T07:29:25;94089.06;;;17.95;86.69
5550;BME280;2798;42.716;23.256;2022-11-20T07:31:50;94096.88;;;17.95;86.69
5550;BME280;2798;42.716;23.256;2022-11-20T07:34:16;94101.44;;;17.92;86.69
5550;BME280;2798;42.716;23.256;2022-11-20T07:36:41;94092.19;;;17.90;86.55
5550;BME280;2798;42.716;23.256;2022-11-20T07:39:07;94101.09;;;17.96;86.85
5550;BME280;2798;42.716;23.256;2022-11-20T07:41:32;94088.13;;;17.87;86.69
5550;BME280;2798;42.716;23.256;2022-11-20T07:43:58;94118.97;;;17.99;86.79
5550;BME280;2798;42.716;23.256;2022-11-20T07:46:23;94101.91;;;17.96;86.68
5550;BME280;2798;42.716;23.256;2022-11-20T07:48:49;94090.00;;;18.02;86.91
5550;BME280;2798;42.716;23.256;2022-11-20T07:51:14;94092.44;;;18.03;86.66
5550;BME280;2798;42.716;23.256;2022-11-20T07:53:40;94094.38;;;18.01;87.05
5550;BME280;2798;42.716;23.256;2022-11-20T07:56:05;94101.84;;;18.04;86.86
5550;BME280;2798;42.716;23.256;2022-11-20T07:58:31;94093.22;;;18.04;87.11
5550;BME280;2798;42.716;23.256;2022-11-20T08:01:02;94094.03;;;18.04;86.98
5550;BME280;2798;42.716;23.256;2022-11-20T08:03:28;94109.47;;;18.06;87.00
5550;BME280;2798;42.716;23.256;2022-11-20T08:05:53;94111.09;;;18.07;86.68
5550;BME280;2798;42.716;23.256;2022-11-20T08:08:19;94109.13;;;18.09;87.29
5550;BME280;2798;42.716;23.256;2022-11-20T08:10:45;94090.00;;;18.02;87.06
5550;BME280;2798;42.716;23.256;2022-11-20T08:13:10;94091.72;;;18.10;87.16
5550;BME280;2798;42.716;23.256;2022-11-20T08:15:54;94092.22;;;18.13;87.09
5550;BME280;2798;42.716;23.256;2022-11-20T08:18:20;94086.53;;;18.10;87.13
5550;BME280;2798;42.716;23.256;2022-11-20T08:20:45;94092.31;;;18.20;86.93
5550;BME280;2798;42.716;23.256;2022-11-20T08:23:10;94092.16;;;18.22;87.36
5550;BME280;2798;42.716;23.256;2022-11-20T08:25:37;94111.50;;;18.27;87.22
5550;BME280;2798;42.716;23.256;2022-11-20T08:28:05;94113.56;;;18.32;87.04
5550;BME280;2798;42.716;23.256;2022-11-20T08:30:31;94123.16;;;18.32;86.93
5550;BME280;2798;42.716;23.256;2022-11-20T08:33:05;94127.06;;;18.36;87.12
5550;BME280;2798;42.716;23.256;2022-11-20T08:35:35;94123.28;;;18.38;86.92
5550;BME280;2798;42.716;23.256;2022-11-20T08:38:02;94116.91;;;18.41;86.89
5550;BME280;2798;42.716;23.256;2022-11-20T08:40:28;94112.88;;;18.38;86.77
5550;BME280;2798;42.716;23.256;2022-11-20T08:42:53;94116.41;;;18.46;86.98
5550;BME280;2798;42.716;23.256;2022-11-20T08:45:19;94132.47;;;18.49;87.12
5550;BME280;2798;42.716;23.256;2022-11-20T08:47:45;94141.09;;;18.50;87.13
5550;BME280;2798;42.716;23.256;2022-11-20T08:50:12;94127.09;;;18.51;86.98
5550;BME280;2798;42.716;23.256;2022-11-20T08:52:38;94144.63;;;18.57;87.49
5550;BME280;2798;42.716;23.256;2022-11-20T08:55:05;94132.88;;;18.61;87.43
5550;BME280;2798;42.716;23.256;2022-11-20T08:57:32;94124.88;;;18.63;87.67
5550;BME280;2798;42.716;23.256;2022-11-20T08:59:58;94114.94;;;18.67;87.76
5550;BME280;2798;42.716;23.256;2022-11-20T09:02:24;94127.25;;;18.73;87.89
5550;BME280;2798;42.716;23.256;2022-11-20T09:04:49;94124.75;;;18.80;87.96
5550;BME280;2798;42.716;23.256;2022-11-20T09:07:14;94127.78;;;18.83;88.03
5550;BME280;2798;42.716;23.256;2022-11-20T09:09:40;94138.03;;;18.85;88.22
5550;BME280;2798;42.716;23.256;2022-11-20T09:12:05;94142.63;;;18.83;89.18
5550;BME280;2798;42.716;23.256;2022-11-20T09:14:31;94149.47;;;18.84;89.32
5550;BME280;2798;42.716;23.256;2022-11-20T09:16:56;94160.97;;;18.89;89.91
5550;BME280;2798;42.716;23.256;2022-11-20T09:19:23;94164.41;;;18.90;91.08
5550;BME280;2798;42.716;23.256;2022-11-20T09:21:49;94147.56;;;18.93;92.88
5550;BME280;2798;42.716;23.256;2022-11-20T09:24:15;94139.75;;;18.93;94.20
5550;BME280;2798;42.716;23.256;2022-11-20T09:26:40;94143.00;;;18.95;94.80
5550;BME280;2798;42.716;23.256;2022-11-20T09:29:06;94135.47;;;19.00;95.09
5550;BME280;2798;42.716;23.256;2022-11-20T09:31:31;94130.88;;;19.02;95.12
5550;BME280;2798;42.716;23.256;2022-11-20T09:33:57;94125.31;;;19.05;94.86
5550;BME280;2798;42.716;23.256;2022-11-20T09:36:22;94119.03;;;19.14;94.28
5550;BME280;2798;42.716;23.256;2022-11-20T09:38:48;94104.91;;;19.24;94.11
5550;BME280;2798;42.716;23.256;2022-11-20T09:47:22;94111.38;;;19.58;93.21
5550;BME280;2798;42.716;23.256;2022-11-20T09:50:14;94106.06;;;19.67;92.79
5550;BME280;2798;42.716;23.256;2022-11-20T09:55:25;94082.38;;;19.68;91.31
5550;BME280;2798;42.716;23.256;2022-11-20T09:57:52;94085.66;;;19.77;91.25
5550;BME280;2798;42.716;23.256;2022-11-20T10:00:18;94093.41;;;19.85;91.16
5550;BME280;2798;42.716;23.256;2022-11-20T10:03:01;94084.44;;;19.95;91.21
5550;BME280;2798;42.716;23.256;2022-11-20T10:05:45;94074.72;;;20.04;90.87
5550;BME280;2798;42.716;23.256;2022-11-20T10:08:28;94088.09;;;20.16;90.52
5550;BME280;2798;42.716;23.256;2022-11-20T10:30:16;94083.25;;;20.34;89.63
5550;BME280;2798;42.716;23.256;2022-11-20T10:32:46;94105.69;;;20.29;87.17
5550;BME280;2798;42.716;23.256;2022-11-20T10:35:20;94117.28;;;20.19;85.29
5550;BME280;2798;42.716;23.256;2022-11-20T10:37:59;94116.75;;;20.09;84.22
5550;BME280;2798;42.716;23.256;2022-11-20T10:42:59;94099.44;;;19.86;84.76
5550;BME280;2798;42.716;23.256;2022-11-20T10:47:57;94071.31;;;19.66;86.79
5550;BME280;2798;42.716;23.256;2022-11-20T10:50:27;94076.81;;;19.56;87.77
5550;BME280;2798;42.716;23.256;2022-11-20T10:53:19;94098.59;;;19.48;88.28
5550;BME280;2798;42.716;23.256;2022-11-20T10:55:58;94095.47;;;19.38;89.22
5550;BME280;2798;42.716;23.256;2022-11-20T10:58:31;94119.31;;;19.20;86.90
5550;BME280;2798;42.716;23.256;2022-11-20T11:01:11;94118.09;;;19.07;85.19
5550;BME280;2798;42.716;23.256;2022-11-20T11:03:38;94107.75;;;18.84;83.55
5550;BME280;2798;42.716;23.256;2022-11-20T11:06:12;94132.56;;;18.80;83.87
5550;BME280;2798;42.716;23.256;2022-11-20T11:08:43;94132.34;;;18.66;85.13
5550;BME280;2798;42.716;23.256;2022-11-20T11:11:21;94088.47;;;18.55;86.14
5550;BME280;2798;42.716;23.256;2022-11-20T11:13:47;94087.41;;;18.49;87.69
5550;BME280;2798;42.716;23.256;2022-11-20T11:16:24;94077.28;;;18.31;86.07
5550;BME280;2798;42.716;23.256;2022-11-20T11:18:50;94071.13;;;18.23;88.36
5550;BME280;2798;42.716;23.256;2022-11-20T11:21:25;94076.78;;;18.12;89.44
5550;BME280;2798;42.716;23.256;2022-11-20T11:24:03;94072.47;;;18.19;90.00
5550;BME280;2798;42.716;23.256;2022-11-20T11:26:29;94066.63;;;18.17;90.60
5550;BME280;2798;42.716;23.256;2022-11-20T11:31:28;94046.16;;;18.14;91.05
5550;BME280;2798;42.716;23.256;2022-11-20T11:34:27;94044.22;;;18.08;91.07
5550;BME280;2798;42.716;23.256;2022-11-20T11:36:56;94040.97;;;18.06;91.93
5550;BME280;2798;42.716;23.256;2022-11-20T11:39:23;94049.59;;;18.06;91.58
5550;BME280;2798;42.716;23.256;2022-11-20T11:41:50;94061.72;;;17.99;92.02
5550;BME280;2798;42.716;23.256;2022-11-20T11:44:31;94056.03;;;17.95;92.15
5550;BME280;2798;42.716;23.256;2022-11-20T11:53:04;94074.31;;;17.87;92.82
5550;BME280;2798;42.716;23.256;2022-11-20T11:55:38;94080.16;;;17.89;93.19
5550;BME280;2798;42.716;23.256;2022-11-20T12:01:03;94087.00;;;17.82;94.14
5550;BME280;2798;42.716;23.256;2022-11-20T12:03:36;94088.31;;;17.86;94.19
5550;BME280;2798;42.716;23.256;2022-11-20T12:06:11;94098.53;;;17.87;94.52
5550;BME280;2798;42.716;23.256;2022-11-20T12:08:51;94098.38;;;17.89;94.14
5550;BME280;2798;42.716;23.256;2022-11-20T12:11:24;94080.28;;;17.64;94.71
5550;BME280;2798;42.716;23.256;2022-11-20T12:14:21;94088.81;;;17.81;94.18
5550;BME280;2798;42.716;23.256;2022-11-20T12:16:52;94093.91;;;17.74;93.57
5550;BME280;2798;42.716;23.256;2022-11-20T12:19:18;94088.06;;;17.72;93.48
5550;BME280;2798;42.716;23.256;2022-11-20T12:21:59;94086.44;;;17.71;93.97
5550;BME280;2798;42.716;23.256;2022-11-20T12:53:07;94047.53;;;17.46;91.59
5550;BME280;2798;42.716;23.256;2022-11-20T12:55:49;94050.97;;;17.47;91.34
5550;BME280;2798;42.716;23.256;2022-11-20T12:58:31;94034.09;;;17.42;91.23
5550;BME280;2798;42.716;23.256;2022-11-20T13:06:46;94024.44;;;17.51;90.09
5550;BME280;2798;42.716;23.256;2022-11-20T13:09:15;94025.88;;;17.54;90.14
5550;BME280;2798;42.716;23.256;2022-11-20T13:19:21;94063.97;;;17.47;89.38
5550;BME280;2798;42.716;23.256;2022-11-20T13:21:48;94077.13;;;17.45;89.58
5550;BME280;2798;42.716;23.256;2022-11-20T13:29:29;94057.72;;;17.24;89.99
5550;BME280;2798;42.716;23.256;2022-11-20T13:32:15;94069.72;;;17.34;90.24
5550;BME280;2798;42.716;23.256;2022-11-20T13:35:01;94073.13;;;17.34;90.32
5550;BME280;2798;42.716;23.256;2022-11-20T13:37:32;94069.53;;;17.35;90.38
5550;BME280;2798;42.716;23.256;2022-11-20T13:40:25;94057.91;;;17.23;90.25
5550;BME280;2798;42.716;23.256;2022-11-20T13:43:11;94065.00;;;17.37;90.80
5550;BME280;2798;42.716;23.256;2022-11-20T13:45:40;94054.59;;;17.37;90.41
5550;BME280;2798;42.716;23.256;2022-11-20T13:48:20;94055.09;;;17.33;90.36
5550;BME280;2798;42.716;23.256;2022-11-20T13:56:15;94061.91;;;17.34;90.15
5550;BME280;2798;42.716;23.256;2022-11-20T13:59:07;94060.81;;;17.28;90.29
5550;BME280;2798;42.716;23.256;2022-11-20T14:01:37;94084.22;;;17.28;89.91
5550;BME280;2798;42.716;23.256;2022-11-20T14:04:07;94065.69;;;17.23;89.95
5550;BME280;2798;42.716;23.256;2022-11-20T14:06:45;94076.09;;;17.23;90.16
5550;BME280;2798;42.716;23.256;2022-11-20T14:09:13;94083.41;;;17.19;89.97
5550;BME280;2798;42.716;23.256;2022-11-20T14:11:49;94072.19;;;17.18;90.16
5550;BME280;2798;42.716;23.256;2022-11-20T14:14:19;94064.44;;;17.10;89.75
5550;BME280;2798;42.716;23.256;2022-11-20T14:16:47;94067.84;;;17.11;90.22
5550;BME280;2798;42.716;23.256;2022-11-20T14:24:31;94063.13;;;17.06;89.85
5550;BME280;2798;42.716;23.256;2022-11-20T14:26:56;94056.47;;;17.03;89.86
5550;BME280;2798;42.716;23.256;2022-11-20T14:29:27;94054.38;;;17.07;89.97
5550;BME280;2798;42.716;23.256;2022-11-20T14:31:55;94063.81;;;17.08;90.10
5550;BME280;2798;42.716;23.256;2022-11-20T14:34:24;94077.28;;;17.03;89.57
5550;BME280;2798;42.716;23.256;2022-11-20T14:37:01;94078.72;;;16.98;89.20
5550;BME280;2798;42.716;23.256;2022-11-20T14:39:36;94080.72;;;16.96;89.07
5550;BME280;2798;42.716;23.256;2022-11-20T14:42:03;94069.00;;;16.91;88.93
5550;BME280;2798;42.716;23.256;2022-11-20T14:44:39;94072.59;;;16.90;89.21
5550;BME280;2798;42.716;23.256;2022-11-20T14:47:04;94060.59;;;16.89;89.32
5550;BME280;2798;42.716;23.256;2022-11-20T14:49:31;94068.56;;;16.88;89.09
5550;BME280;2798;42.716;23.256;2022-11-20T14:52:02;94065.16;;;16.79;89.29
5550;BME280;2798;42.716;23.256;2022-11-20T14:54:28;94086.75;;;16.88;89.32
5550;BME280;2798;42.716;23.256;2022-11-20T14:56:55;94069.84;;;16.84;89.25
5550;BME280;2798;42.716;23.256;2022-11-20T14:59:30;94076.03;;;16.83;88.98
5550;BME280;2798;42.716;23.256;2022-11-20T15:01:58;94089.97;;;16.81;89.02
5550;BME280;2798;42.716;23.256;2022-11-20T15:04:24;94096.34;;;16.79;89.15
5550;BME280;2798;42.716;23.256;2022-11-20T15:06:51;94092.75;;;16.80;89.21
5550;BME280;2798;42.716;23.256;2022-11-20T15:09:17;94099.75;;;16.79;89.46